createdAt,value
2019-01-18T00:01:10.355Z,-6.90
2019-01-18T00:03:39.808Z,-6.89
2019-01-18T00:06:08.993Z,-6.89
2019-01-18T00:08:38.488Z,-6.88
2019-01-18T00:11:08.011Z,-6.88
2019-01-18T00:13:37.195Z,-6.90
2019-01-18T00:16:06.395Z,-6.92
2019-01-18T00:18:35.915Z,-6.93
2019-01-18T00:21:05.126Z,-6.96
2019-01-18T00:23:34.322Z,-6.95
2019-01-18T00:26:03.814Z,-6.96
2019-01-18T00:28:33.043Z,-6.96
2019-01-18T00:31:02.239Z,-6.97
2019-01-18T00:33:31.562Z,-6.97
2019-01-18T00:36:00.757Z,-6.98
2019-01-18T00:38:30.090Z,-6.98
2019-01-18T00:40:59.611Z,-6.99
2019-01-18T00:43:28.795Z,-7.00
2019-01-18T00:46:00.261Z,-7.01
2019-01-18T00:48:29.491Z,-7.02
2019-01-18T00:50:58.678Z,-7.04
2019-01-18T00:53:28.059Z,-7.02
2019-01-18T00:55:57.296Z,-7.04
2019-01-18T00:58:26.501Z,-7.05
2019-01-18T01:00:56.064Z,-7.06
2019-01-18T01:03:25.315Z,-7.09
2019-01-18T01:05:54.510Z,-7.10
2019-01-18T01:08:23.961Z,-7.11
2019-01-18T01:10:53.218Z,-7.12
2019-01-18T01:13:22.678Z,-7.13
2019-01-18T01:15:52.065Z,-7.14
2019-01-18T01:18:21.295Z,-7.14
2019-01-18T01:20:50.602Z,-7.14
2019-01-18T01:23:20.070Z,-7.14
2019-01-18T01:25:49.415Z,-7.13
2019-01-18T01:28:18.595Z,-7.12
2019-01-18T01:30:47.887Z,-7.14
2019-01-18T01:33:17.104Z,-7.14
2019-01-18T01:35:46.283Z,-7.14
2019-01-18T01:38:15.666Z,-7.14
2019-01-18T01:40:45.064Z,-7.13
2019-01-18T01:43:14.268Z,-7.13
2019-01-18T01:45:43.585Z,-7.13
2019-01-18T01:48:12.817Z,-7.10
2019-01-18T01:50:42.016Z,-7.12
2019-01-18T01:53:11.558Z,-7.12
2019-01-18T01:55:40.820Z,-7.13
2019-01-18T01:58:10.023Z,-7.10
2019-01-18T02:00:39.465Z,-7.11
2019-01-18T02:03:08.687Z,-7.10
2019-01-18T02:05:37.866Z,-7.09
2019-01-18T02:08:07.308Z,-7.08
2019-01-18T02:10:36.623Z,-7.09
2019-01-18T02:13:05.909Z,-7.08
2019-01-18T02:15:35.377Z,-7.08
2019-01-18T02:18:04.731Z,-7.09
2019-01-18T02:20:33.932Z,-7.09
2019-01-18T02:23:03.473Z,-7.09
2019-01-18T02:25:32.720Z,-7.11
2019-01-18T02:28:01.883Z,-7.14
2019-01-18T02:30:31.159Z,-7.13
2019-01-18T02:33:00.458Z,-7.13
2019-01-18T02:35:29.657Z,-7.09
2019-01-18T02:37:58.928Z,-7.09
2019-01-18T02:40:28.136Z,-7.10
2019-01-18T02:42:57.558Z,-7.11
2019-01-18T02:45:27.074Z,-7.11
2019-01-18T02:47:56.273Z,-7.09
2019-01-18T02:50:25.467Z,-7.07
2019-01-18T02:52:54.971Z,-7.03
2019-01-18T02:55:28.857Z,-7.03
2019-01-18T02:57:55.406Z,-7.00
2019-01-18T03:00:25.058Z,-7.00
2019-01-18T03:02:54.298Z,-7.02
2019-01-18T03:05:26.087Z,-7.03
2019-01-18T03:07:56.586Z,-7.05
2019-01-18T03:10:28.767Z,-7.06
2019-01-18T03:12:58.047Z,-7.07
2019-01-18T03:15:27.228Z,-7.05
2019-01-18T03:17:56.687Z,-7.05
2019-01-18T03:20:25.888Z,-7.03
2019-01-18T03:22:55.193Z,-7.01
2019-01-18T03:25:29.087Z,-7.00
2019-01-18T03:27:58.531Z,-6.97
2019-01-18T03:30:27.742Z,-6.95
2019-01-18T03:32:57.180Z,-6.93
2019-01-18T03:35:26.674Z,-6.90
2019-01-18T03:37:55.949Z,-6.87
2019-01-18T03:40:27.738Z,-6.80
2019-01-18T03:42:56.951Z,-6.72
2019-01-18T03:45:26.284Z,-6.64
2019-01-18T03:47:56.258Z,-6.55
2019-01-18T03:50:27.585Z,-6.50
2019-01-18T03:52:57.379Z,-6.49
2019-01-18T03:55:26.620Z,-6.48
2019-01-18T03:57:55.808Z,-6.47
2019-01-18T04:00:27.459Z,-6.44
2019-01-18T04:02:56.789Z,-6.40
2019-01-18T04:05:25.941Z,-6.36
2019-01-18T04:07:55.226Z,-6.36
2019-01-18T04:10:24.953Z,-6.36
2019-01-18T04:12:54.153Z,-6.34
2019-01-18T04:15:24.414Z,-6.27
2019-01-18T04:17:53.673Z,-6.23
2019-01-18T04:20:23.695Z,-6.19
2019-01-18T04:22:53.277Z,-6.17
2019-01-18T04:25:25.885Z,-6.12
2019-01-18T04:27:55.493Z,-6.12
2019-01-18T04:30:33.003Z,-6.10
2019-01-18T04:32:56.504Z,-6.06
2019-01-18T04:35:25.716Z,-6.05
2019-01-18T04:37:54.895Z,-6.05
2019-01-18T04:40:25.733Z,-6.04
2019-01-18T04:42:55.171Z,-6.04
2019-01-18T04:45:25.202Z,-6.07
2019-01-18T04:47:54.558Z,-6.13
2019-01-18T04:50:25.359Z,-6.13
2019-01-18T04:52:54.639Z,-6.09
2019-01-18T04:55:23.884Z,-6.04
2019-01-18T04:57:53.279Z,-6.03
2019-01-18T05:00:30.737Z,-6.07
2019-01-18T05:03:00.010Z,-6.07
2019-01-18T05:05:29.217Z,-6.06
2019-01-18T05:07:58.833Z,-6.06
2019-01-18T05:10:29.194Z,-6.06
2019-01-18T05:12:59.078Z,-6.05
2019-01-18T05:15:30.382Z,-6.02
2019-01-18T05:17:59.583Z,-6.00
2019-01-18T05:20:29.120Z,-6.00
2019-01-18T05:22:58.354Z,-5.98
2019-01-18T05:25:27.574Z,-5.97
2019-01-18T05:27:57.019Z,-6.01
2019-01-18T05:30:28.117Z,-6.00
2019-01-18T05:32:57.324Z,-5.99
2019-01-18T05:35:26.867Z,-5.96
2019-01-18T05:37:56.097Z,-5.93
2019-01-18T05:40:25.280Z,-5.94
2019-01-18T05:42:54.659Z,-5.94
2019-01-18T05:45:23.990Z,-5.95
2019-01-18T05:47:53.189Z,-5.94
2019-01-18T05:50:25.408Z,-5.94
2019-01-18T05:52:54.729Z,-5.88
2019-01-18T05:55:24.468Z,-5.87
2019-01-18T05:57:53.950Z,-5.88
2019-01-18T06:00:55.371Z,-5.91
2019-01-18T06:03:24.700Z,-5.95
2019-01-18T06:05:53.913Z,-5.97
2019-01-18T06:08:23.117Z,-5.95
2019-01-18T06:10:52.388Z,-5.92
2019-01-18T06:13:21.593Z,-5.91
2019-01-18T06:15:50.842Z,-5.90
2019-01-18T06:18:20.399Z,-5.86
2019-01-18T06:20:49.611Z,-5.83
2019-01-18T06:23:18.645Z,-5.81
2019-01-18T06:25:48.086Z,-5.79
2019-01-18T06:28:17.267Z,-5.81
2019-01-18T06:30:46.532Z,-5.82
2019-01-18T06:33:16.094Z,-5.85
2019-01-18T06:35:45.283Z,-5.86
2019-01-18T06:38:14.563Z,-5.85
2019-01-18T06:40:44.956Z,-5.85
2019-01-18T06:43:14.129Z,-5.89
2019-01-18T06:45:43.363Z,-5.86
2019-01-18T06:48:15.176Z,-5.85
2019-01-18T06:50:44.363Z,-5.85
2019-01-18T06:53:13.735Z,-5.83
2019-01-18T06:55:43.164Z,-5.81
2019-01-18T06:58:12.349Z,-5.81
2019-01-18T07:00:41.615Z,-5.82
2019-01-18T07:03:10.908Z,-5.82
2019-01-18T07:05:40.110Z,-5.80
2019-01-18T07:08:09.347Z,-5.80
2019-01-18T07:10:39.683Z,-5.78
2019-01-18T07:13:08.859Z,-5.81
2019-01-18T07:15:38.119Z,-5.85
2019-01-18T07:18:07.588Z,-5.84
2019-01-18T07:20:36.800Z,-5.82
2019-01-18T07:23:06.093Z,-5.74
2019-01-18T07:25:35.488Z,-5.66
2019-01-18T07:28:04.691Z,-5.62
2019-01-18T07:30:36.829Z,-5.58
2019-01-18T07:33:08.875Z,-5.56
2019-01-18T07:35:38.186Z,-5.52
2019-01-18T07:38:07.409Z,-5.45
2019-01-18T07:40:36.877Z,-5.43
2019-01-18T07:43:07.859Z,-5.41
2019-01-18T07:45:37.093Z,-5.36
2019-01-18T07:48:06.502Z,-5.32
2019-01-18T07:50:35.883Z,-5.29
2019-01-18T07:53:05.453Z,-5.27
2019-01-18T07:55:34.737Z,-5.19
2019-01-18T07:58:05.395Z,-5.17
2019-01-18T08:00:34.677Z,-5.18
2019-01-18T08:03:03.955Z,-5.17
2019-01-18T08:05:33.719Z,-5.18
2019-01-18T08:08:03.582Z,-5.18
2019-01-18T08:10:32.776Z,-5.13
2019-01-18T08:13:02.648Z,-5.07
2019-01-18T08:15:31.900Z,-5.01
2019-01-18T08:18:01.084Z,-4.95
2019-01-18T08:20:31.755Z,-4.94
2019-01-18T08:23:01.924Z,-4.93
2019-01-18T08:25:31.120Z,-4.94
2019-01-18T08:28:00.782Z,-4.94
2019-01-18T08:30:30.923Z,-4.97
2019-01-18T08:33:00.147Z,-4.95
2019-01-18T08:35:30.519Z,-4.96
2019-01-18T08:37:59.837Z,-4.92
2019-01-18T08:40:31.727Z,-4.88
2019-01-18T08:43:01.010Z,-4.83
2019-01-18T08:45:39.460Z,-4.79
2019-01-18T08:48:09.271Z,-4.75
2019-01-18T08:50:38.742Z,-4.73
2019-01-18T08:53:08.335Z,-4.63
2019-01-18T08:55:37.621Z,-4.57
2019-01-18T08:58:06.932Z,-4.43
2019-01-18T09:00:36.165Z,-4.23
2019-01-18T09:03:06.442Z,-3.99
2019-01-18T09:05:35.728Z,-3.77
2019-01-18T09:08:05.709Z,-3.58
2019-01-18T09:10:35.162Z,-3.45
2019-01-18T09:13:04.341Z,-3.22
2019-01-18T09:15:33.621Z,-2.98
2019-01-18T09:18:03.409Z,-2.81
2019-01-18T09:20:32.727Z,-2.71
2019-01-18T09:23:01.950Z,-2.55
2019-01-18T09:25:31.781Z,-2.41
2019-01-18T09:28:00.982Z,-2.36
2019-01-18T09:30:33.680Z,-2.23
2019-01-18T09:33:04.296Z,-2.29
2019-01-18T09:35:33.640Z,-2.24
2019-01-18T09:38:03.514Z,-2.12
2019-01-18T09:40:33.639Z,-2.04
2019-01-18T09:43:02.891Z,-2.01
2019-01-18T09:45:32.328Z,-1.96
2019-01-18T09:48:01.561Z,-1.80
2019-01-18T09:50:32.923Z,-1.75
2019-01-18T09:53:02.589Z,-1.57
2019-01-18T09:55:31.975Z,-1.57
2019-01-18T09:58:01.480Z,-1.57
2019-01-18T10:00:33.102Z,-1.58
2019-01-18T10:03:02.759Z,-1.49
2019-01-18T10:05:32.921Z,-1.30
2019-01-18T10:08:02.222Z,-1.15
2019-01-18T10:10:31.662Z,-1.15
2019-01-18T10:13:01.109Z,-1.11
2019-01-18T10:15:36.534Z,-0.97
2019-01-18T10:18:06.628Z,-0.99
2019-01-18T10:20:35.813Z,-0.94
2019-01-18T10:23:05.553Z,-0.89
2019-01-18T10:25:35.026Z,-0.82
2019-01-18T10:28:04.219Z,-0.74
2019-01-18T10:30:33.638Z,-0.87
2019-01-18T10:33:02.889Z,-1.10
2019-01-18T10:35:32.078Z,-1.37
2019-01-18T10:38:01.648Z,-1.65
2019-01-18T10:40:30.987Z,-1.91
2019-01-18T10:43:00.170Z,-2.05
2019-01-18T10:45:29.466Z,-2.15
2019-01-18T10:48:00.020Z,-2.20
2019-01-18T10:50:31.728Z,-2.31
2019-01-18T10:53:00.927Z,-2.40
2019-01-18T10:55:30.240Z,-2.45
2019-01-18T10:57:59.892Z,-2.54
2019-01-18T11:00:32.281Z,-2.61
2019-01-18T11:03:02.300Z,-2.64
2019-01-18T11:05:31.494Z,-2.63
2019-01-18T11:08:00.889Z,-2.65
2019-01-18T11:10:32.450Z,-2.68
2019-01-18T11:13:01.866Z,-2.71
2019-01-18T11:15:36.016Z,-2.72
2019-01-18T11:18:02.591Z,-2.70
2019-01-18T11:20:59.063Z,-2.73
2019-01-18T11:23:28.306Z,-2.72
2019-01-18T11:25:57.507Z,-2.73
2019-01-18T11:28:27.069Z,-2.72
2019-01-18T11:30:56.327Z,-2.70
2019-01-18T11:33:25.513Z,-2.71
2019-01-18T11:35:55.067Z,-2.69
2019-01-18T11:38:24.313Z,-2.70
2019-01-18T11:40:53.497Z,-2.69
2019-01-18T11:43:23.274Z,-2.69
2019-01-18T11:45:52.486Z,-2.68
2019-01-18T11:48:21.683Z,-2.69
2019-01-18T11:50:51.176Z,-2.68
2019-01-18T11:53:20.495Z,-2.67
2019-01-18T11:55:49.688Z,-2.63
2019-01-18T11:58:19.072Z,-2.56
2019-01-18T12:00:48.344Z,-2.55
2019-01-18T12:03:17.728Z,-2.50
2019-01-18T12:05:47.181Z,-2.48
2019-01-18T12:08:16.413Z,-2.44
2019-01-18T12:10:45.595Z,-2.37
2019-01-18T12:13:15.085Z,-2.28
2019-01-18T12:15:44.505Z,-2.17
2019-01-18T12:18:13.733Z,-2.03
2019-01-18T12:20:44.331Z,-1.87
2019-01-18T12:23:13.612Z,-1.71
2019-01-18T12:25:42.839Z,-1.61
2019-01-18T12:28:12.429Z,-1.52
2019-01-18T12:30:41.647Z,-1.44
2019-01-18T12:33:11.032Z,-1.51
2019-01-18T12:35:40.528Z,-1.43
2019-01-18T12:38:11.294Z,-1.40
2019-01-18T12:40:40.491Z,-1.39
2019-01-18T12:43:09.953Z,-1.35
2019-01-18T12:45:39.213Z,-1.32
2019-01-18T12:48:08.437Z,-1.20
2019-01-18T12:50:39.702Z,-1.22
2019-01-18T12:53:09.291Z,-1.34
2019-01-18T12:55:38.702Z,-1.34
2019-01-18T12:58:08.524Z,-1.36
2019-01-18T13:00:38.072Z,-1.29
2019-01-18T13:03:08.201Z,-1.30
2019-01-18T13:05:49.219Z,-1.61
2019-01-18T13:08:18.416Z,-1.94
2019-01-18T13:10:47.615Z,-2.21
2019-01-18T13:13:17.119Z,-2.42
2019-01-18T13:16:02.411Z,-2.58
2019-01-18T13:18:32.434Z,-2.68
2019-01-18T13:21:01.693Z,-2.79
2019-01-18T13:23:30.901Z,-2.87
2019-01-18T13:26:00.219Z,-2.97
2019-01-18T13:28:29.412Z,-3.04
2019-01-18T13:30:58.733Z,-3.11
2019-01-18T13:33:28.052Z,-3.16
2019-01-18T13:35:57.249Z,-3.23
2019-01-18T13:38:26.466Z,-3.30
2019-01-18T13:40:55.915Z,-3.34
2019-01-18T13:43:25.101Z,-3.37
2019-01-18T13:45:54.535Z,-3.41
2019-01-18T13:48:24.003Z,-3.42
2019-01-18T13:50:53.221Z,-3.44
2019-01-18T13:53:22.834Z,-3.45
2019-01-18T13:55:52.136Z,-3.50
2019-01-18T13:58:21.343Z,-3.52
2019-01-18T14:00:50.570Z,-3.55
2019-01-18T14:03:20.016Z,-3.58
2019-01-18T14:05:49.211Z,-3.60
2019-01-18T14:08:18.913Z,-3.64
2019-01-18T14:10:48.246Z,-3.67
2019-01-18T14:13:17.481Z,-3.70
2019-01-18T14:15:46.684Z,-3.71
2019-01-18T14:18:16.119Z,-3.75
2019-01-18T14:20:45.352Z,-3.75
2019-01-18T14:23:14.583Z,-3.77
2019-01-18T14:25:44.022Z,-3.79
2019-01-18T14:28:13.217Z,-3.83
2019-01-18T14:30:42.398Z,-3.86
2019-01-18T14:33:11.923Z,-3.90
2019-01-18T14:35:41.107Z,-3.92
2019-01-18T14:38:10.319Z,-3.95
2019-01-18T14:40:39.679Z,-3.97
2019-01-18T14:43:08.882Z,-3.99
2019-01-18T14:45:40.769Z,-4.00
2019-01-18T14:48:10.015Z,-4.01
2019-01-18T14:50:39.208Z,-4.01
2019-01-18T14:53:08.483Z,-4.04
2019-01-18T14:55:37.893Z,-4.05
2019-01-18T14:58:10.547Z,-4.06
2019-01-18T15:00:40.283Z,-4.09
2019-01-18T15:03:09.548Z,-4.09
2019-01-18T15:05:38.959Z,-4.11
2019-01-18T15:08:08.673Z,-4.15
2019-01-18T15:10:38.347Z,-4.16
2019-01-18T15:13:10.658Z,-4.16
2019-01-18T15:15:39.852Z,-4.15
2019-01-18T15:18:09.104Z,-4.15
2019-01-18T15:20:38.388Z,-4.15
2019-01-18T15:23:07.916Z,-4.18
2019-01-18T15:25:37.129Z,-4.16
2019-01-18T15:28:06.556Z,-4.16
2019-01-18T15:30:35.854Z,-4.15
2019-01-18T15:33:09.262Z,-4.16
2019-01-18T15:35:40.206Z,-4.16
2019-01-18T15:38:11.368Z,-4.13
2019-01-18T15:40:44.578Z,-4.11
2019-01-18T15:43:15.658Z,-4.14
2019-01-18T15:45:45.056Z,-4.13
2019-01-18T15:48:14.243Z,-4.14
2019-01-18T15:50:43.559Z,-4.14
2019-01-18T15:53:12.831Z,-4.15
2019-01-18T15:55:42.535Z,-4.16
2019-01-18T15:58:11.823Z,-4.19
2019-01-18T16:00:45.366Z,-4.20
2019-01-18T16:03:16.103Z,-4.22
2019-01-18T16:05:45.651Z,-4.26
2019-01-18T16:08:15.002Z,-4.30
2019-01-18T16:10:44.207Z,-4.32
2019-01-18T16:13:14.001Z,-4.37
2019-01-18T16:15:58.921Z,-4.41
2019-01-18T16:18:28.260Z,-4.47
2019-01-18T16:20:57.832Z,-4.50
2019-01-18T16:23:27.427Z,-4.56
2019-01-18T16:25:56.700Z,-4.60
2019-01-18T16:28:25.961Z,-4.63
2019-01-18T16:30:55.247Z,-4.66
2019-01-18T16:33:24.522Z,-4.70
2019-01-18T16:35:53.705Z,-4.72
2019-01-18T16:38:23.032Z,-4.75
2019-01-18T16:40:52.316Z,-4.76
2019-01-18T16:43:28.344Z,-4.78
2019-01-18T16:45:59.128Z,-4.80
2019-01-18T16:48:28.309Z,-4.81
2019-01-18T16:50:57.612Z,-4.82
2019-01-18T16:53:26.886Z,-4.83
2019-01-18T16:55:56.083Z,-4.86
2019-01-18T16:58:25.496Z,-4.86
2019-01-18T17:00:56.260Z,-4.90
2019-01-18T17:03:30.366Z,-4.91
2019-01-18T17:05:56.450Z,-4.92
2019-01-18T17:08:25.705Z,-4.94
2019-01-18T17:10:54.957Z,-4.97
2019-01-18T17:13:24.758Z,-4.98
2019-01-18T17:15:54.146Z,-5.00
2019-01-18T17:18:24.970Z,-5.01
2019-01-18T17:20:54.366Z,-5.04
2019-01-18T17:23:23.591Z,-5.06
2019-01-18T17:25:52.804Z,-5.08
2019-01-18T17:28:22.295Z,-5.10
2019-01-18T17:30:51.532Z,-5.14
2019-01-18T17:33:20.740Z,-5.15
2019-01-18T17:36:16.459Z,-5.17
2019-01-18T17:39:23.276Z,-5.16
2019-01-18T17:42:49.220Z,-5.18
2019-01-18T17:45:47.856Z,-5.18
2019-01-18T17:48:54.085Z,-5.21
2019-01-18T17:52:13.725Z,-5.25
2019-01-18T17:54:59.740Z,-5.28
2019-01-18T17:58:11.442Z,-5.30
2019-01-18T18:01:23.652Z,-5.32
2019-01-18T18:04:42.963Z,-5.33
2019-01-18T18:07:27.483Z,-5.32
2019-01-18T18:10:39.186Z,-5.34
2019-01-18T18:14:09.908Z,-5.34
2019-01-18T18:17:35.400Z,-5.37
2019-01-18T18:20:45.889Z,-5.38
2019-01-18T18:23:59.199Z,-5.39
2019-01-18T18:27:04.360Z,-5.41
2019-01-18T18:30:22.224Z,-5.39
2019-01-18T18:33:50.398Z,-5.37
2019-01-18T18:36:39.662Z,-5.36
2019-01-18T18:39:49.649Z,-5.36
2019-01-18T18:42:54.240Z,-5.33
2019-01-18T18:46:10.835Z,-5.26
2019-01-18T18:49:08.068Z,-5.26
2019-01-18T18:51:53.975Z,-5.25
2019-01-18T18:55:12.456Z,-5.29
2019-01-18T18:58:14.206Z,-5.31
2019-01-18T19:01:22.529Z,-5.34
2019-01-18T19:04:38.831Z,-5.34
2019-01-18T19:07:56.354Z,-5.38
2019-01-18T19:11:10.184Z,-5.37
2019-01-18T19:14:13.818Z,-5.38
2019-01-18T19:17:30.603Z,-5.37
2019-01-18T19:20:35.873Z,-5.38
2019-01-18T19:23:40.167Z,-5.34
2019-01-18T19:26:49.680Z,-5.32
2019-01-18T19:30:00.951Z,-5.32
2019-01-18T19:33:38.444Z,-5.30
2019-01-18T19:36:34.798Z,-5.28
2019-01-18T19:39:56.823Z,-5.29
2019-01-18T19:42:59.246Z,-5.33
2019-01-18T19:46:05.421Z,-5.34
2019-01-18T19:49:09.105Z,-5.34
2019-01-18T19:51:59.369Z,-5.34
2019-01-18T19:55:03.107Z,-5.33
2019-01-18T19:58:13.369Z,-5.27
2019-01-18T20:01:11.858Z,-5.23
2019-01-18T20:04:26.955Z,-5.23
2019-01-18T20:07:36.212Z,-5.23
2019-01-18T20:10:34.881Z,-5.26
2019-01-18T20:13:32.990Z,-5.28
2019-01-18T20:16:31.375Z,-5.30
2019-01-18T20:19:31.835Z,-5.29
2019-01-18T20:22:45.387Z,-5.29
2019-01-18T20:25:45.905Z,-5.28
2019-01-18T20:29:05.227Z,-5.29
2019-01-18T20:32:04.302Z,-5.31
2019-01-18T20:35:16.330Z,-5.30
2019-01-18T20:38:38.825Z,-5.29
2019-01-18T20:41:24.567Z,-5.26
2019-01-18T20:44:20.843Z,-5.28
2019-01-18T20:47:14.132Z,-5.29
2019-01-18T20:50:33.673Z,-5.24
2019-01-18T20:53:27.386Z,-5.20
2019-01-18T20:56:17.340Z,-5.20
2019-01-18T20:59:06.832Z,-5.19
2019-01-18T21:02:16.359Z,-5.22
2019-01-18T21:05:13.962Z,-5.24
2019-01-18T21:08:08.202Z,-5.25
2019-01-18T21:11:08.261Z,-5.26
2019-01-18T21:14:06.191Z,-5.26
2019-01-18T21:17:19.957Z,-5.24
2019-01-18T21:20:28.157Z,-5.19
2019-01-18T21:23:35.480Z,-5.18
2019-01-18T21:26:39.547Z,-5.20
2019-01-18T21:29:42.701Z,-5.18
2019-01-18T21:32:47.141Z,-5.24
2019-01-18T21:35:40.535Z,-5.26
2019-01-18T21:38:54.867Z,-5.28
2019-01-18T21:41:55.411Z,-5.32
2019-01-18T21:45:01.426Z,-5.36
2019-01-18T21:48:12.887Z,-5.37
2019-01-18T21:51:21.918Z,-5.39
2019-01-18T21:54:16.869Z,-5.40
2019-01-18T21:57:39.215Z,-5.37
2019-01-18T22:00:42.822Z,-5.37
2019-01-18T22:03:23.395Z,-5.31
2019-01-18T22:06:25.551Z,-5.32
2019-01-18T22:09:21.593Z,-5.32
2019-01-18T22:12:16.938Z,-5.31
2019-01-18T22:15:25.567Z,-5.30
2019-01-18T22:18:30.087Z,-5.31
2019-01-18T22:21:40.743Z,-5.30
2019-01-18T22:24:47.526Z,-5.31
2019-01-18T22:27:47.705Z,-5.31
2019-01-18T22:30:42.575Z,-5.30
2019-01-18T22:33:29.959Z,-5.32
2019-01-18T22:36:35.246Z,-5.32
2019-01-18T22:39:18.382Z,-5.33
2019-01-18T22:42:30.757Z,-5.34
2019-01-18T22:45:13.183Z,-5.31
2019-01-18T22:48:06.822Z,-5.31
2019-01-18T22:51:07.756Z,-5.30
2019-01-18T22:54:19.772Z,-5.31
2019-01-18T22:57:27.201Z,-5.32
2019-01-18T23:00:43.130Z,-5.31
2019-01-18T23:04:00.990Z,-5.32
2019-01-18T23:07:03.190Z,-5.31
2019-01-18T23:10:05.487Z,-5.30
2019-01-18T23:12:51.846Z,-5.27
2019-01-18T23:16:05.622Z,-5.27
2019-01-18T23:19:06.384Z,-5.26
2019-01-18T23:22:29.577Z,-5.29
2019-01-18T23:25:08.803Z,-5.26
2019-01-18T23:28:18.163Z,-5.24
2019-01-18T23:31:00.057Z,-5.22
2019-01-18T23:33:47.891Z,-5.25
2019-01-18T23:36:39.102Z,-5.26
2019-01-18T23:39:34.906Z,-5.28
2019-01-18T23:42:52.289Z,-5.27
2019-01-18T23:45:41.908Z,-5.30
2019-01-18T23:48:50.444Z,-5.28
2019-01-18T23:52:01.340Z,-5.29
2019-01-18T23:55:07.217Z,-6.57
2019-01-18T23:58:12.096Z,-5.31
